Time;durP1;ratioP1;P1;durP2;ratioP2;P2;SDS_P1;SDS_P2;PMS_P1;PMS_P2;Temp;Humidity;BMP_temperature;BMP_pressure;BME280_temperature;BME280_humidity;BME280_pressure;Samples;Min_cycle;Max_cycle;Signal;HPM_P1;HPM_P2
2022/07/18 00:00:08;;;;;;;6.00;3.60;;;13.80;29.60;;;;;;5040089;28;46489;-64
2022/07/18 00:02:34;;;;;;;6.33;3.53;;;13.80;29.60;;;;;;5039266;28;46378;-65
2022/07/18 00:05:00;;;;;;;9.10;3.20;;;13.80;29.60;;;;;;5038381;28;46362;-65
2022/07/18 00:07:25;;;;;;;6.10;3.30;;;13.80;29.60;;;;;;5038335;28;46355;-64
2022/07/18 00:09:51;;;;;;;5.60;3.00;;;13.80;29.70;;;;;;5038766;28;46346;-64
2022/07/18 00:12:17;;;;;;;13.30;3.50;;;13.80;29.80;;;;;;5040069;28;46394;-64
2022/07/18 00:14:43;;;;;;;11.53;3.27;;;13.70;29.80;;;;;;5037447;28;46641;-63
2022/07/18 00:17:09;;;;;;;5.97;3.70;;;13.70;30.00;;;;;;5039976;28;46250;-63
2022/07/18 00:19:36;;;;;;;4.80;3.33;;;13.60;30.00;;;;;;5038089;28;46328;-64
2022/07/18 00:22:02;;;;;;;6.23;3.90;;;13.60;30.10;;;;;;5039721;28;46425;-63
2022/07/18 00:24:28;;;;;;;7.87;3.50;;;13.50;30.30;;;;;;5039141;28;46495;-63
2022/07/18 00:26:53;;;;;;;4.60;3.10;;;13.50;30.60;;;;;;5037703;28;46527;-64
2022/07/18 00:29:19;;;;;;;10.93;4.03;;;13.50;31.00;;;;;;5039071;28;46421;-63
2022/07/18 00:31:45;;;;;;;10.83;4.03;;;13.50;31.10;;;;;;5038820;28;46398;-64
2022/07/18 00:34:11;;;;;;;4.73;3.23;;;13.50;31.30;;;;;;5040083;28;45983;-64
2022/07/18 00:36:36;;;;;;;6.30;4.20;;;13.50;31.40;;;;;;5038293;28;47335;-66
2022/07/18 00:39:03;;;;;;;5.27;3.40;;;13.50;31.50;;;;;;5038624;28;46335;-65
2022/07/18 00:41:29;;;;;;;7.20;3.40;;;13.50;31.50;;;;;;5040258;28;46488;-65
2022/07/18 00:43:57;;;;;;;5.33;3.50;;;13.50;31.60;;;;;;5038085;28;46061;-65
2022/07/18 00:46:24;;;;;;;8.10;3.40;;;13.50;31.70;;;;;;5036391;28;46829;-64
2022/07/18 00:48:50;;;;;;;8.50;3.47;;;13.50;32.00;;;;;;5038690;28;46695;-64
2022/07/18 00:51:16;;;;;;;8.97;3.43;;;13.50;32.10;;;;;;5040615;28;46502;-65
2022/07/18 00:53:43;;;;;;;6.67;2.67;;;13.30;32.20;;;;;;5040142;28;46648;-65
2022/07/18 00:56:09;;;;;;;5.00;3.40;;;13.20;32.30;;;;;;5036432;28;46579;-64
2022/07/18 00:58:35;;;;;;;7.13;3.30;;;13.20;32.50;;;;;;5035399;28;46371;-64
2022/07/18 01:03:45;;;;;;;6.80;3.60;;;13.10;32.40;;;;;;5038490;28;45748;-64
2022/07/18 01:06:11;;;;;;;4.83;3.30;;;13.10;32.40;;;;;;5038842;28;46384;-64
2022/07/18 01:08:38;;;;;;;9.20;3.80;;;13.00;32.30;;;;;;5037217;28;46378;-64
2022/07/18 01:11:04;;;;;;;6.07;3.50;;;13.00;32.50;;;;;;5039571;28;46539;-63
2022/07/18 01:13:29;;;;;;;5.73;3.57;;;12.90;32.50;;;;;;5038790;28;46412;-64
2022/07/18 01:15:55;;;;;;;4.20;3.30;;;12.90;32.70;;;;;;5037882;28;47159;-63
2022/07/18 01:18:21;;;;;;;5.23;3.60;;;12.80;32.60;;;;;;5036848;28;46410;-63
2022/07/18 01:20:46;;;;;;;5.17;3.20;;;12.80;32.60;;;;;;5039791;28;46299;-64
2022/07/18 01:23:12;;;;;;;5.37;3.50;;;12.80;32.70;;;;;;5038728;28;46613;-64
2022/07/18 01:25:37;;;;;;;6.73;3.47;;;12.80;32.70;;;;;;5038668;28;46330;-64
2022/07/18 01:28:03;;;;;;;6.70;3.53;;;12.80;32.70;;;;;;5038194;28;46373;-63
2022/07/18 01:30:29;;;;;;;8.30;3.23;;;12.80;32.60;;;;;;5038513;28;46325;-63
2022/07/18 01:33:00;;;;;;;8.50;3.73;;;12.80;32.70;;;;;;5039550;28;46303;-64
2022/07/18 01:35:26;;;;;;;5.80;3.07;;;12.70;33.00;;;;;;5037586;28;46691;-63
2022/07/18 01:37:53;;;;;;;7.70;3.90;;;12.60;33.30;;;;;;5037863;28;46461;-65
2022/07/18 01:40:19;;;;;;;5.40;3.60;;;12.50;33.50;;;;;;5038031;28;46390;-65
2022/07/18 01:42:45;;;;;;;10.63;4.13;;;12.50;33.60;;;;;;5038400;28;45931;-66
2022/07/18 01:45:11;;;;;;;4.70;3.13;;;12.50;33.40;;;;;;5034452;28;46427;-66
2022/07/18 01:47:37;;;;;;;8.63;4.07;;;12.50;33.40;;;;;;5036170;28;46695;-65
2022/07/18 01:50:03;;;;;;;5.00;3.50;;;12.60;33.40;;;;;;5037806;28;46576;-64
2022/07/18 01:52:28;;;;;;;6.30;3.60;;;12.50;33.40;;;;;;5037423;28;46676;-64
2022/07/18 01:54:54;;;;;;;5.40;3.40;;;12.60;33.50;;;;;;5037144;28;46537;-62
2022/07/18 01:57:20;;;;;;;5.63;3.90;;;12.60;33.60;;;;;;5037283;28;46465;-64
2022/07/18 01:59:45;;;;;;;17.83;3.50;;;12.60;33.60;;;;;;5035043;28;46434;-64
2022/07/18 02:02:11;;;;;;;6.97;3.13;;;12.60;33.70;;;;;;5037896;28;46516;-64
2022/07/18 02:07:21;;;;;;;6.20;3.60;;;12.60;33.80;;;;;;5036206;28;46359;-63
2022/07/18 02:09:48;;;;;;;11.23;4.20;;;12.60;33.90;;;;;;5035165;28;46278;-64
2022/07/18 02:12:14;;;;;;;8.07;3.50;;;12.50;33.90;;;;;;5039992;28;46527;-63
2022/07/18 02:14:40;;;;;;;7.50;4.10;;;12.50;33.90;;;;;;5039936;28;47129;-64
2022/07/18 02:17:05;;;;;;;6.27;3.37;;;12.50;34.00;;;;;;5040222;28;46410;-64
2022/07/18 02:19:31;;;;;;;8.07;3.70;;;12.50;34.00;;;;;;5038768;28;46268;-64
2022/07/18 02:21:56;;;;;;;6.10;2.90;;;12.50;33.80;;;;;;5039813;28;45839;-64
2022/07/18 02:24:22;;;;;;;6.27;3.47;;;12.50;34.00;;;;;;5039881;28;49077;-64
2022/07/18 02:26:48;;;;;;;7.87;4.10;;;12.40;34.20;;;;;;5040533;28;46468;-64
2022/07/18 02:29:13;;;;;;;6.93;3.97;;;12.30;34.20;;;;;;5041214;28;46682;-64
2022/07/18 02:31:39;;;;;;;9.93;4.00;;;12.20;34.10;;;;;;5039068;28;46442;-65
2022/07/18 02:34:09;;;;;;;5.93;4.07;;;12.20;34.20;;;;;;5040338;28;48017;-65
2022/07/18 02:36:36;;;;;;;5.13;3.97;;;12.20;34.40;;;;;;5040450;28;46531;-65
2022/07/18 02:39:03;;;;;;;6.60;3.37;;;12.20;34.40;;;;;;5039335;28;46637;-65
2022/07/18 02:41:28;;;;;;;5.23;3.60;;;12.20;34.40;;;;;;5040205;28;46448;-64
2022/07/18 02:43:54;;;;;;;5.80;3.93;;;12.10;34.60;;;;;;5037336;28;46460;-65
2022/07/18 02:46:20;;;;;;;5.57;3.83;;;12.00;34.80;;;;;;5038927;28;46350;-64
2022/07/18 02:48:45;;;;;;;6.03;3.70;;;12.00;34.90;;;;;;5036280;28;46386;-64
2022/07/18 02:51:11;;;;;;;5.70;3.80;;;11.80;35.00;;;;;;5041101;28;46436;-65
2022/07/18 02:53:36;;;;;;;6.17;4.20;;;11.80;35.40;;;;;;5038090;28;47056;-65
2022/07/18 02:56:02;;;;;;;5.93;4.20;;;11.70;35.50;;;;;;5039268;28;46353;-64
2022/07/18 02:58:28;;;;;;;5.63;4.27;;;11.60;35.60;;;;;;5040235;28;46318;-64
2022/07/18 03:00:53;;;;;;;6.50;3.80;;;11.60;35.50;;;;;;5039319;28;46474;-63
2022/07/18 03:03:19;;;;;;;6.97;4.47;;;11.70;35.60;;;;;;5040001;28;47077;-64
2022/07/18 03:05:45;;;;;;;5.70;4.00;;;11.70;35.60;;;;;;5038675;28;46386;-64
2022/07/18 03:08:10;;;;;;;6.30;4.80;;;11.70;35.70;;;;;;5039349;28;46377;-64
2022/07/18 03:10:36;;;;;;;8.30;5.70;;;11.70;35.70;;;;;;5040664;28;45936;-64
2022/07/18 03:13:01;;;;;;;6.37;4.80;;;11.80;35.70;;;;;;5038617;28;47180;-65
2022/07/18 03:15:27;;;;;;;7.80;4.87;;;11.90;35.60;;;;;;5039991;28;46522;-65
2022/07/18 03:17:53;;;;;;;9.07;4.97;;;12.00;35.60;;;;;;5039459;28;46404;-66
2022/07/18 03:20:18;;;;;;;9.70;4.60;;;12.00;35.70;;;;;;5039449;28;46356;-65
2022/07/18 03:22:44;;;;;;;6.00;4.30;;;12.00;35.50;;;;;;5037057;28;46512;-65
2022/07/18 03:25:09;;;;;;;11.13;4.33;;;12.10;35.90;;;;;;5038695;28;46367;-65
2022/07/18 03:27:35;;;;;;;7.73;4.77;;;12.10;35.90;;;;;;5039045;28;46450;-65
2022/07/18 03:30:01;;;;;;;5.77;3.90;;;12.20;36.10;;;;;;5040388;28;46499;-65
2022/07/18 03:32:26;;;;;;;7.47;4.17;;;12.20;36.10;;;;;;5038953;28;46901;-64
2022/07/18 03:34:52;;;;;;;7.20;4.30;;;12.10;36.10;;;;;;5040116;28;46402;-64
2022/07/18 03:37:17;;;;;;;6.57;3.70;;;12.00;36.10;;;;;;5040277;28;46359;-64
2022/07/18 03:39:43;;;;;;;7.50;4.30;;;12.00;36.30;;;;;;5039489;28;46851;-65
2022/07/18 03:42:08;;;;;;;6.67;3.80;;;11.90;36.40;;;;;;5039983;28;46557;-64
2022/07/18 03:44:34;;;;;;;7.60;4.37;;;11.90;36.50;;;;;;5038783;28;46409;-64
2022/07/18 03:46:59;;;;;;;7.93;4.40;;;11.90;36.40;;;;;;5041356;28;46402;-64
2022/07/18 03:49:25;;;;;;;7.00;5.30;;;12.00;36.40;;;;;;5039264;28;46382;-64
2022/07/18 03:51:51;;;;;;;7.50;4.87;;;12.20;36.20;;;;;;5038644;28;46408;-64
2022/07/18 03:54:16;;;;;;;5.90;4.40;;;12.20;36.00;;;;;;5040065;28;46420;-64
2022/07/18 03:56:42;;;;;;;5.00;3.90;;;12.30;36.00;;;;;;5039359;28;46502;-64
2022/07/18 03:59:07;;;;;;;10.00;3.53;;;12.40;36.10;;;;;;5039962;28;46397;-65
2022/07/18 04:01:33;;;;;;;5.53;3.90;;;12.40;36.10;;;;;;5039142;28;46215;-63
2022/07/18 04:03:59;;;;;;;11.73;4.20;;;12.40;36.10;;;;;;5038710;28;46743;-64
2022/07/18 04:06:24;;;;;;;7.63;4.17;;;12.30;36.20;;;;;;5040490;28;46367;-65
2022/07/18 04:08:50;;;;;;;4.73;3.50;;;12.20;36.40;;;;;;5038608;28;46555;-65
2022/07/18 04:11:15;;;;;;;7.97;3.70;;;12.10;36.30;;;;;;5039983;28;46454;-64
2022/07/18 04:13:41;;;;;;;5.20;4.07;;;12.10;36.40;;;;;;5037436;28;46403;-64
2022/07/18 04:16:07;;;;;;;7.70;3.47;;;12.10;37.70;;;;;;5040452;28;46450;-64
2022/07/18 04:18:32;;;;;;;8.17;4.50;;;12.10;36.40;;;;;;5038795;28;46393;-64
2022/07/18 04:20:58;;;;;;;8.10;5.07;;;12.20;36.30;;;;;;5039510;28;47119;-64
2022/07/18 04:23:23;;;;;;;10.93;4.83;;;12.20;36.20;;;;;;5039402;28;46424;-64
2022/07/18 04:25:49;;;;;;;6.63;4.17;;;12.30;36.20;;;;;;5039555;28;46489;-64
2022/07/18 04:28:15;;;;;;;8.43;4.20;;;12.40;36.00;;;;;;5040732;28;46438;-64
2022/07/18 04:30:42;;;;;;;7.70;4.00;;;12.50;35.80;;;;;;5039841;28;46323;-64
2022/07/18 04:33:09;;;;;;;9.23;4.37;;;12.60;35.70;;;;;;5039558;28;46383;-64
2022/07/18 04:35:35;;;;;;;10.60;3.87;;;12.80;35.50;;;;;;5037994;28;45941;-65
2022/07/18 04:38:02;;;;;;;9.23;4.50;;;12.90;35.50;;;;;;5040300;28;46653;-64
2022/07/18 04:40:28;;;;;;;10.00;4.50;;;13.00;35.30;;;;;;5039222;28;47197;-63
2022/07/18 04:42:53;;;;;;;8.10;4.07;;;13.10;35.10;;;;;;5039476;28;46805;-63
2022/07/18 04:45:21;;;;;;;6.43;3.90;;;13.30;35.10;;;;;;5039698;28;46339;-63
2022/07/18 04:47:50;;;;;;;6.47;4.67;;;13.40;34.90;;;;;;5039271;28;45976;-63
2022/07/18 04:50:16;;;;;;;7.40;4.10;;;13.60;34.60;;;;;;5036973;28;46772;-63
2022/07/18 04:52:44;;;;;;;17.83;4.60;;;13.90;34.10;;;;;;5039985;28;46431;-64
2022/07/18 04:55:12;;;;;;;11.90;6.27;;;14.80;33.10;;;;;;5040205;28;46331;-64
2022/07/18 04:57:38;;;;;;;5.30;3.40;;;16.70;31.00;;;;;;5040719;28;46319;-64
2022/07/18 05:00:12;;;;;;;31.77;5.30;;;17.80;28.60;;;;;;5039554;28;46033;-64
2022/07/18 05:02:46;;;;;;;10.57;3.90;;;19.00;27.10;;;;;;5037247;28;46343;-64
2022/07/18 05:05:13;;;;;;;9.67;4.60;;;20.60;25.30;;;;;;5039615;28;46429;-65
2022/07/18 05:07:40;;;;;;;7.13;3.90;;;21.90;23.80;;;;;;5033966;28;46422;-65
2022/07/18 05:10:07;;;;;;;5.20;3.07;;;23.00;22.40;;;;;;5037438;28;46726;-64
2022/07/18 05:12:35;;;;;;;4.23;3.20;;;23.80;21.30;;;;;;5036864;28;46712;-66
2022/07/18 05:15:01;;;;;;;6.13;2.90;;;24.60;19.90;;;;;;5037626;28;46603;-65
2022/07/18 05:17:27;;;;;;;6.80;3.37;;;25.50;18.70;;;;;;5038969;28;46363;-65
2022/07/18 05:19:52;;;;;;;6.70;3.60;;;26.20;17.20;;;;;;5035037;28;46492;-65
2022/07/18 05:22:18;;;;;;;4.53;3.20;;;26.90;15.90;;;;;;5039280;28;46456;-64
2022/07/18 05:24:43;;;;;;;6.27;3.20;;;27.60;14.70;;;;;;5037620;28;46609;-64
2022/07/18 05:27:09;;;;;;;6.40;3.53;;;28.10;13.30;;;;;;5038961;28;46386;-64
2022/07/18 05:29:35;;;;;;;8.07;3.43;;;28.40;12.50;;;;;;5036208;28;46445;-64
2022/07/18 05:32:02;;;;;;;7.20;3.60;;;28.90;11.30;;;;;;5037885;28;46436;-64
2022/07/18 05:34:27;;;;;;;7.30;3.00;;;29.30;10.20;;;;;;5037528;28;46271;-63
2022/07/18 05:36:53;;;;;;;4.37;2.90;;;29.80;9.30;;;;;;5037082;28;46473;-64
2022/07/18 05:39:18;;;;;;;4.73;3.00;;;30.30;8.20;;;;;;5037781;28;46630;-64
2022/07/18 05:41:44;;;;;;;5.60;3.50;;;30.80;7.10;;;;;;5038011;28;46427;-65
2022/07/18 05:44:09;;;;;;;4.90;2.97;;;31.20;6.80;;;;;;5038827;28;46365;-64
2022/07/18 05:46:35;;;;;;;8.20;3.23;;;31.70;5.50;;;;;;5036605;28;46302;-64
2022/07/18 05:49:01;;;;;;;4.97;3.50;;;32.10;4.70;;;;;;5037115;28;46398;-65
2022/07/18 05:51:26;;;;;;;4.23;3.00;;;32.20;4.60;;;;;;5037609;28;46211;-64
2022/07/18 05:53:52;;;;;;;8.70;3.20;;;32.50;4.40;;;;;;5035830;28;46182;-64
2022/07/18 05:56:17;;;;;;;7.80;3.20;;;32.60;3.50;;;;;;5039114;28;46524;-63
2022/07/18 05:58:43;;;;;;;8.00;3.23;;;32.90;2.90;;;;;;5037104;28;46565;-64
2022/07/18 06:01:08;;;;;;;6.53;3.87;;;32.90;2.70;;;;;;5037593;28;46921;-64
2022/07/18 06:03:34;;;;;;;6.07;2.90;;;33.10;2.50;;;;;;5033993;28;46386;-65
2022/07/18 06:06:00;;;;;;;3.87;3.00;;;33.10;2.20;;;;;;5038185;28;46389;-63
2022/07/18 06:08:26;;;;;;;6.80;3.30;;;32.60;3.10;;;;;;5018943;28;47973;-61
2022/07/18 06:10:51;;;;;;;4.53;3.43;;;30.80;5.40;;;;;;5037295;28;46399;-63
2022/07/18 06:13:17;;;;;;;4.17;2.90;;;29.50;7.00;;;;;;5037791;28;46661;-63
2022/07/18 06:15:43;;;;;;;4.30;3.03;;;28.60;8.70;;;;;;5034704;28;46371;-63
2022/07/18 06:18:08;;;;;;;6.93;3.13;;;27.90;9.90;;;;;;5037069;28;46682;-63
2022/07/18 06:20:34;;;;;;;4.80;2.90;;;27.50;10.60;;;;;;5034811;28;46326;-64
2022/07/18 06:23:00;;;;;;;3.67;3.00;;;27.10;11.10;;;;;;5036588;28;46453;-61
2022/07/18 06:25:25;;;;;;;6.97;3.60;;;26.80;11.50;;;;;;5034839;28;46281;-64
2022/07/18 06:27:51;;;;;;;6.03;2.93;;;26.60;11.30;;;;;;5036723;28;46180;-63
2022/07/18 06:30:16;;;;;;;5.57;2.87;;;26.40;11.30;;;;;;5036795;28;46427;-62
2022/07/18 06:32:42;;;;;;;5.43;3.20;;;26.20;10.80;;;;;;5033840;28;46576;-62
2022/07/18 06:35:08;;;;;;;10.67;3.60;;;26.00;11.00;;;;;;5037591;28;46355;-63
2022/07/18 06:37:34;;;;;;;10.07;3.77;;;25.80;11.10;;;;;;5036725;28;45994;-64
2022/07/18 06:40:00;;;;;;;9.73;3.50;;;25.60;11.10;;;;;;5035370;28;46421;-63
2022/07/18 06:42:25;;;;;;;5.23;3.23;;;25.40;11.00;;;;;;5034842;28;46585;-64
2022/07/18 06:44:51;;;;;;;6.23;3.40;;;25.40;11.00;;;;;;5036012;28;46454;-62
2022/07/18 06:47:17;;;;;;;9.10;3.40;;;25.20;10.90;;;;;;5037862;28;47964;-63
2022/07/18 06:49:43;;;;;;;6.10;3.93;;;25.20;10.70;;;;;;5034934;28;46422;-62
2022/07/18 06:52:11;;;;;;;6.40;3.80;;;25.10;11.10;;;;;;5038194;28;46771;-64
2022/07/18 06:54:38;;;;;;;6.90;4.40;;;25.20;11.30;;;;;;5034329;28;45839;-64
2022/07/18 06:57:07;;;;;;;12.30;4.17;;;25.10;11.60;;;;;;5036964;28;46592;-64
2022/07/18 06:59:33;;;;;;;8.87;3.33;;;24.80;11.70;;;;;;5040855;28;46410;-64
2022/07/18 07:01:59;;;;;;;7.13;3.37;;;24.60;11.70;;;;;;5039122;28;46446;-65
2022/07/18 07:04:25;;;;;;;13.33;3.53;;;24.60;11.70;;;;;;5038333;28;46485;-64
2022/07/18 07:06:50;;;;;;;7.60;3.20;;;24.60;11.70;;;;;;5039379;28;46741;-64
2022/07/18 07:09:16;;;;;;;9.00;3.73;;;24.60;11.80;;;;;;5037926;28;46354;-65
2022/07/18 07:11:41;;;;;;;9.83;3.30;;;24.60;11.80;;;;;;5041097;28;46392;-63
2022/07/18 07:33:36;;;;;;;7.63;3.00;;;24.00;11.90;;;;;;5055843;27;46514;-65
2022/07/18 07:36:03;;;;;;;7.13;3.30;;;24.10;12.80;;;;;;5049272;28;46340;-64
2022/07/18 07:38:29;;;;;;;5.00;2.90;;;24.40;12.60;;;;;;5043786;28;45912;-63
2022/07/18 07:40:55;;;;;;;5.30;3.33;;;24.70;12.20;;;;;;5049014;28;46450;-64
2022/07/18 07:43:21;;;;;;;7.27;3.00;;;24.90;11.90;;;;;;5037948;28;46425;-65
2022/07/18 07:45:48;;;;;;;6.27;3.30;;;25.00;11.80;;;;;;5045473;28;46488;-65
2022/07/18 07:48:15;;;;;;;5.47;3.13;;;25.30;11.60;;;;;;5045888;28;46414;-64
2022/07/18 07:50:40;;;;;;;11.87;2.67;;;25.50;11.30;;;;;;5043056;28;46681;-64
2022/07/18 07:53:07;;;;;;;10.13;3.10;;;25.60;11.00;;;;;;5041130;28;46493;-64
2022/07/18 07:55:32;;;;;;;12.63;3.10;;;25.80;10.90;;;;;;5047255;28;46387;-64
2022/07/18 07:57:58;;;;;;;10.60;3.00;;;25.90;11.10;;;;;;5043173;28;46359;-65
2022/07/18 08:00:24;;;;;;;12.87;3.27;;;26.20;10.60;;;;;;5045196;28;46924;-65
2022/07/18 08:03:01;;;;;;;7.60;2.83;;;26.40;10.00;;;;;;5042476;28;46947;-65
2022/07/18 08:05:29;;;;;;;7.13;2.90;;;26.60;10.00;;;;;;5045353;28;46335;-63
2022/07/18 08:07:55;;;;;;;6.00;2.70;;;26.70;9.60;;;;;;5041852;28;46690;-63
2022/07/18 08:10:21;;;;;;;9.70;3.27;;;26.70;9.10;;;;;;5043309;28;46485;-64
2022/07/18 08:12:46;;;;;;;6.57;2.70;;;26.70;9.10;;;;;;5042624;28;49128;-63
2022/07/18 08:15:13;;;;;;;5.97;3.03;;;26.80;8.90;;;;;;5042565;28;46492;-62
2022/07/18 08:17:39;;;;;;;5.43;2.90;;;27.00;8.80;;;;;;5040714;28;46412;-62
2022/07/18 08:20:05;;;;;;;6.43;3.23;;;27.10;8.40;;;;;;5042854;28;46602;-61
2022/07/18 08:22:31;;;;;;;8.10;2.97;;;27.30;8.30;;;;;;5042163;28;46726;-61
2022/07/18 08:24:56;;;;;;;6.83;2.63;;;27.30;8.00;;;;;;5045529;28;46512;-61
2022/07/18 08:27:22;;;;;;;5.60;2.90;;;27.40;8.00;;;;;;5041779;28;46441;-62
2022/07/18 08:29:47;;;;;;;6.37;2.70;;;27.60;7.80;;;;;;5038795;28;46432;-63
2022/07/18 08:32:13;;;;;;;5.00;2.90;;;28.00;7.80;;;;;;5044166;28;46799;-63
2022/07/18 08:34:39;;;;;;;11.83;3.43;;;28.00;7.50;;;;;;5044835;28;46633;-64
2022/07/18 08:37:05;;;;;;;5.13;2.70;;;28.10;7.10;;;;;;5044200;28;46624;-64
2022/07/18 08:39:30;;;;;;;5.93;2.70;;;28.30;6.80;;;;;;5044997;28;46620;-63
2022/07/18 08:42:00;;;;;;;8.57;2.70;;;28.40;6.60;;;;;;5046626;28;46510;-63
2022/07/18 08:44:27;;;;;;;6.33;2.50;;;28.60;6.30;;;;;;5033134;28;46450;-64
2022/07/18 08:46:56;;;;;;;5.33;2.33;;;28.50;5.30;;;;;;5029760;28;45832;-61
2022/07/18 08:49:22;;;;;;;6.03;2.40;;;28.50;5.30;;;;;;5030806;28;46410;-64
2022/07/18 08:51:48;;;;;;;7.93;2.53;;;28.30;5.60;;;;;;5031245;28;46406;-63
2022/07/18 08:54:15;;;;;;;4.50;2.20;;;28.30;5.20;;;;;;5031669;28;46511;-64
2022/07/18 08:56:40;;;;;;;4.00;2.17;;;28.40;4.40;;;;;;5033604;28;46402;-62
2022/07/18 08:59:06;;;;;;;7.07;2.10;;;28.50;3.50;;;;;;5030890;28;46349;-62
2022/07/18 09:01:33;;;;;;;3.87;2.20;;;28.60;3.00;;;;;;5030408;28;48476;-62
2022/07/18 09:04:18;;;;;;;6.17;2.10;;;28.50;2.50;;;;;;5029068;28;46696;-62
2022/07/18 09:06:44;;;;;;;9.03;1.90;;;28.60;2.40;;;;;;5029408;28;46403;-63
2022/07/18 09:09:12;;;;;;;4.70;2.40;;;28.60;2.50;;;;;;5028663;28;46783;-63
2022/07/18 09:11:50;;;;;;;8.40;2.13;;;28.80;2.30;;;;;;5027267;28;47130;-62
2022/07/18 09:14:42;;;;;;;4.40;2.50;;;28.90;2.40;;;;;;5027923;28;46412;-63
2022/07/18 09:17:11;;;;;;;4.20;2.07;;;29.20;2.00;;;;;;5027689;28;46844;-63
2022/07/18 09:19:59;;;;;;;4.17;2.20;;;29.20;1.60;;;;;;5035246;28;46057;-64
2022/07/18 09:22:27;;;;;;;4.20;2.00;;;28.90;1.50;;;;;;5030637;28;48009;-64
2022/07/18 09:24:53;;;;;;;3.90;2.47;;;29.00;1.60;;;;;;5031972;28;46501;-64
2022/07/18 09:27:39;;;;;;;3.77;1.73;;;29.10;1.50;;;;;;5029178;28;46400;-64
2022/07/18 09:30:22;;;;;;;7.80;1.73;;;29.10;1.00;;;;;;5029173;28;46413;-63
2022/07/18 09:32:51;;;;;;;5.70;1.80;;;29.00;1.00;;;;;;5026220;28;46958;-63
2022/07/18 09:35:23;;;;;;;3.70;2.27;;;28.90;1.00;;;;;;5029911;28;46379;-63
2022/07/18 09:37:54;;;;;;;10.87;2.60;;;28.90;1.00;;;;;;5030101;28;46140;-64
2022/07/18 09:40:23;;;;;;;3.70;1.90;;;28.90;1.00;;;;;;5032131;28;46442;-64
2022/07/18 09:42:54;;;;;;;5.40;1.97;;;29.00;1.00;;;;;;5029690;28;46665;-64
2022/07/18 09:45:25;;;;;;;5.93;2.20;;;29.40;1.00;;;;;;5028621;28;46469;-65
2022/07/18 09:47:58;;;;;;;3.70;2.30;;;29.50;1.00;;;;;;5030165;28;47001;-63
2022/07/18 09:50:27;;;;;;;3.50;1.90;;;29.50;1.00;;;;;;5026816;28;46609;-64
2022/07/18 09:52:58;;;;;;;3.20;1.70;;;29.50;1.00;;;;;;5036966;28;46456;-63
2022/07/18 09:55:25;;;;;;;7.10;2.07;;;29.30;1.00;;;;;;5033366;28;46379;-64
2022/07/18 09:58:06;;;;;;;3.87;2.20;;;29.50;1.00;;;;;;5027949;28;46477;-62
2022/07/18 10:00:35;;;;;;;5.67;2.10;;;29.60;1.00;;;;;;5030003;28;46866;-63
2022/07/18 10:03:02;;;;;;;3.10;1.97;;;29.40;1.00;;;;;;5027714;28;47968;-64
2022/07/18 10:05:32;;;;;;;3.83;2.20;;;29.60;1.00;;;;;;5028482;28;46409;-64
2022/07/18 10:08:00;;;;;;;3.40;2.23;;;29.80;1.00;;;;;;5026368;28;46453;-63
2022/07/18 10:10:28;;;;;;;5.60;2.10;;;29.90;1.00;;;;;;5028229;28;46481;-64
2022/07/18 10:12:55;;;;;;;4.57;2.00;;;29.70;1.00;;;;;;5034692;28;46407;-65
2022/07/18 10:15:24;;;;;;;3.03;2.00;;;29.60;1.00;;;;;;5031508;28;46515;-65
2022/07/18 10:17:49;;;;;;;3.17;1.80;;;29.30;1.00;;;;;;5025115;28;46471;-65
2022/07/18 10:20:15;;;;;;;3.30;1.90;;;29.20;1.00;;;;;;5027769;28;46628;-63
2022/07/18 10:22:42;;;;;;;2.97;1.87;;;29.30;1.00;;;;;;5023938;28;46483;-63
2022/07/18 10:25:13;;;;;;;3.97;1.90;;;29.40;1.00;;;;;;5028875;28;46532;-63
2022/07/18 10:28:04;;;;;;;3.13;1.90;;;29.70;1.00;;;;;;5025787;28;46451;-64
2022/07/18 10:30:34;;;;;;;6.30;1.90;;;29.80;1.00;;;;;;5027932;28;46448;-63
2022/07/18 10:33:01;;;;;;;4.10;2.03;;;30.00;1.00;;;;;;5024973;28;46408;-63
2022/07/18 10:35:59;;;;;;;5.10;2.00;;;30.10;1.00;;;;;;5031222;28;46841;-64
2022/07/18 10:38:25;;;;;;;7.47;2.33;;;30.30;1.00;;;;;;5030977;28;46450;-63
2022/07/18 10:41:10;;;;;;;5.90;1.93;;;30.40;1.00;;;;;;5029100;28;46436;-63
2022/07/18 10:43:39;;;;;;;10.83;2.07;;;30.40;1.00;;;;;;5024776;28;48039;-63
2022/07/18 10:46:06;;;;;;;4.13;1.97;;;30.20;1.00;;;;;;5026965;28;46425;-63
2022/07/18 10:48:35;;;;;;;4.07;1.80;;;30.00;1.00;;;;;;5024796;28;46525;-63
2022/07/18 10:51:17;;;;;;;3.30;1.70;;;30.00;1.00;;;;;;5025916;28;46514;-63
2022/07/18 10:54:01;;;;;;;5.80;2.10;;;29.80;1.00;;;;;;5023986;28;47427;-63
2022/07/18 10:56:36;;;;;;;4.00;1.63;;;30.00;1.00;;;;;;5023841;28;46407;-63
2022/07/18 10:59:35;;;;;;;4.87;2.00;;;30.30;1.00;;;;;;5035335;28;46637;-63
2022/07/18 11:02:05;;;;;;;6.53;2.10;;;30.50;1.00;;;;;;5007901;27;46483;-66
2022/07/18 11:04:36;;;;;;;2.93;1.90;;;30.20;1.00;;;;;;5026372;27;46477;-63
2022/07/18 11:07:15;;;;;;;12.67;2.30;;;30.00;1.00;;;;;;5055288;28;46650;-65
2022/07/18 11:09:48;;;;;;;4.57;2.00;;;30.10;1.00;;;;;;5037727;28;46475;-66
2022/07/18 11:12:23;;;;;;;6.43;1.97;;;30.20;1.00;;;;;;5057605;28;46377;-66
2022/07/18 11:15:07;;;;;;;6.90;1.83;;;30.40;1.00;;;;;;5045619;28;49393;-68
2022/07/18 11:17:51;;;;;;;3.53;1.63;;;30.60;1.00;;;;;;5058000;28;46680;-62
2022/07/18 11:20:30;;;;;;;7.57;2.23;;;30.90;1.00;;;;;;5058545;28;46491;-60
2022/07/18 11:22:56;;;;;;;4.87;2.00;;;31.00;1.00;;;;;;5057587;28;46355;-61
2022/07/18 11:25:28;;;;;;;4.27;1.73;;;30.90;1.00;;;;;;5060059;28;47121;-62
2022/07/18 11:27:55;;;;;;;6.60;1.50;;;30.80;1.00;;;;;;5056749;28;46213;-64
2022/07/18 11:30:22;;;;;;;4.03;2.13;;;30.40;1.00;;;;;;5048525;27;47058;-63
2022/07/18 11:32:49;;;;;;;7.03;1.93;;;30.50;1.00;;;;;;5057522;28;46562;-64
2022/07/18 11:35:20;;;;;;;3.97;2.30;;;30.50;1.00;;;;;;5055540;28;46453;-65
2022/07/18 11:37:48;;;;;;;4.20;1.57;;;30.30;1.00;;;;;;5052996;28;46735;-64
2022/07/18 11:40:14;;;;;;;6.37;2.00;;;30.20;1.00;;;;;;5058031;28;46385;-64
2022/07/18 11:42:41;;;;;;;3.30;1.70;;;30.20;1.00;;;;;;5057312;28;46507;-64
2022/07/18 11:45:08;;;;;;;4.17;1.80;;;30.10;1.00;;;;;;5058783;28;46899;-65
2022/07/18 11:47:51;;;;;;;4.20;1.70;;;30.00;1.00;;;;;;5057186;28;46411;-64
2022/07/18 11:50:25;;;;;;;5.50;1.90;;;30.10;1.00;;;;;;5057743;28;46435;-65
2022/07/18 11:52:56;;;;;;;3.97;1.90;;;30.20;1.00;;;;;;5057945;28;46385;-64
2022/07/18 11:55:35;;;;;;;5.60;1.73;;;30.20;1.00;;;;;;5058467;28;46401;-64
2022/07/18 11:58:12;;;;;;;4.37;1.70;;;30.30;1.00;;;;;;5057670;28;46421;-63
2022/07/18 12:00:38;;;;;;;3.50;1.93;;;30.40;1.00;;;;;;5056851;28;46694;-63
2022/07/18 12:03:24;;;;;;;7.17;2.17;;;30.20;1.00;;;;;;5058036;28;45902;-63
2022/07/18 12:05:52;;;;;;;6.13;1.80;;;30.10;1.00;;;;;;5058831;28;46487;-64
2022/07/18 12:08:42;;;;;;;5.07;2.10;;;30.20;1.00;;;;;;5056897;28;46376;-63
2022/07/18 12:11:20;;;;;;;7.83;1.70;;;30.20;1.00;;;;;;5056519;28;46507;-63
2022/07/18 12:13:58;;;;;;;7.10;2.00;;;30.30;1.00;;;;;;5057552;28;46648;-63
2022/07/18 12:16:38;;;;;;;4.30;1.80;;;30.60;1.00;;;;;;5058144;28;46484;-64
2022/07/18 12:19:12;;;;;;;7.13;1.90;;;30.90;1.00;;;;;;5057781;28;46659;-63
2022/07/18 12:21:52;;;;;;;13.87;2.20;;;30.90;1.00;;;;;;5060925;28;45866;-63
2022/07/18 12:24:26;;;;;;;3.13;2.00;;;30.80;1.00;;;;;;5062248;28;46531;-63
2022/07/18 12:27:18;;;;;;;4.63;1.60;;;30.60;1.00;;;;;;5060303;28;46179;-64
2022/07/18 12:30:19;;;;;;;4.90;1.90;;;30.50;1.00;;;;;;5061376;28;46698;-64
2022/07/18 12:32:46;;;;;;;3.77;1.60;;;30.50;1.00;;;;;;5016316;28;46521;-64
2022/07/18 12:35:16;;;;;;;5.87;2.10;;;30.50;1.00;;;;;;5051248;28;46006;-62
2022/07/18 12:37:51;;;;;;;3.60;2.00;;;30.60;1.00;;;;;;5058446;28;47226;-62
2022/07/18 12:40:17;;;;;;;8.57;1.60;;;30.80;1.00;;;;;;5058830;28;46384;-64
2022/07/18 12:42:43;;;;;;;11.77;2.40;;;30.80;1.00;;;;;;5069617;28;46402;-64
2022/07/18 12:45:10;;;;;;;7.13;2.03;;;30.60;1.00;;;;;;5068009;28;46446;-64
2022/07/18 12:47:36;;;;;;;139.50;7.30;;;30.90;1.00;;;;;;5067620;28;46733;-65
2022/07/18 12:50:03;;;;;;;6.33;2.57;;;31.20;1.00;;;;;;5067197;28;46499;-65
2022/07/18 12:52:29;;;;;;;2.60;1.50;;;31.30;1.00;;;;;;5068876;27;46485;-65
2022/07/18 12:54:55;;;;;;;7.53;2.07;;;31.10;1.00;;;;;;5069491;28;46676;-67
2022/07/18 12:57:22;;;;;;;4.30;2.10;;;31.00;1.00;;;;;;5068900;28;47053;-65
2022/07/18 12:59:48;;;;;;;3.53;1.87;;;31.10;1.00;;;;;;5068307;28;46404;-64
2022/07/18 13:02:14;;;;;;;5.70;2.07;;;31.10;1.00;;;;;;5071383;27;45870;-62
2022/07/18 13:04:40;;;;;;;3.43;1.80;;;31.10;1.00;;;;;;5070052;27;46459;-66
2022/07/18 13:07:05;;;;;;;5.20;1.70;;;31.10;1.00;;;;;;5068365;28;47398;-64
2022/07/18 13:09:31;;;;;;;4.83;1.70;;;31.30;1.00;;;;;;5067776;27;46556;-64
2022/07/18 13:11:58;;;;;;;6.50;1.83;;;31.40;1.00;;;;;;5070710;28;46428;-64
2022/07/18 13:14:23;;;;;;;7.00;1.90;;;31.50;1.00;;;;;;5069335;28;46555;-64
2022/07/18 13:16:49;;;;;;;4.70;1.70;;;31.50;1.00;;;;;;5070844;27;47032;-64
2022/07/18 13:19:16;;;;;;;3.27;1.80;;;31.60;1.00;;;;;;5071541;28;46439;-64